^^
Datos históricos de la estación: Murcia-Puente Tocinos
Diario Informe para Noviembre 2, 2019 Unidades:  Métrico    Ingés   Ambas
Diario Semanal Mensual Anual
  Máxima: Mínima: Promedio:
Temperatura: 27.2 °C 17.9 °C 22.3 °C
Punto de rocio: 14.9 °C 8.7 °C 12.1 °C
Humedad: 72% 32% 54%
Velocidad viento: 21.7km/h 0km/h 8.9km/h
Racha viento: 42.6km/h - -
Viento- - SO
Presión: 1013.7 hPa 1005.0 hPa -
Precipitación: 0.0 mm    
 
 
Tabla de datos para Noviembre 2, 2019
Hora Temperatura Punto de rocio Presión Viento Velocidad viento Racha viento Humedad Intensidad lluvia(por hora) Nubes
00:04 21.7 °C 14.9 °C 1013.7 hPa SO 6 km/h 13 km/h 65.4% 0.0 mm
00:09 21.6 °C 14.7 °C 1013.7 hPa SO 5.8 km/h 12.9 km/h 65% 0.0 mm
00:14 21.6 °C 14.7 °C 1013.6 hPa SO 7.1 km/h 13 km/h 65% 0.0 mm
00:19 21.4 °C 14.8 °C 1013.6 hPa SO 7.6 km/h 9.7 km/h 65.9% 0.0 mm
00:24 21.3 °C 14.7 °C 1013.6 hPa SO 6.7 km/h 9.7 km/h 66% 0.0 mm
00:29 21.2 °C 14.7 °C 1013.5 hPa SO 6.5 km/h 9.7 km/h 66.3% 0.0 mm
00:34 21.2 °C 14.8 °C 1013.5 hPa SSO 6.5 km/h 10 km/h 66.9% 0.0 mm
00:39 21.2 °C 14.8 °C 1013.6 hPa SSO 6.5 km/h 11.1 km/h 67% 0.0 mm
00:44 21.1 °C 14.7 °C 1013.6 hPa SSO 6.5 km/h 13.7 km/h 67% 0.0 mm
00:49 21.1 °C 14.7 °C 1013.6 hPa SO 6.5 km/h 14.5 km/h 66.9% 0.0 mm
00:54 21.1 °C 14.5 °C 1013.6 hPa OSO 8 km/h 14.5 km/h 66% 0.0 mm
00:59 21.1 °C 14.5 °C 1013.5 hPa Oeste 8.4 km/h 11.3 km/h 66% 0.0 mm
01:04 21.1 °C 14.5 °C 1013.5 hPa Oeste 6.3 km/h 9.7 km/h 66.1% 0.0 mm
01:09 21 °C 14.6 °C 1013.5 hPa OSO 5.8 km/h 8 km/h 66.9% 0.0 mm
01:14 20.9 °C 14.5 °C 1013.3 hPa Oeste 4.9 km/h 8 km/h 67% 0.0 mm
01:19 20.8 °C 14.4 °C 1013.3 hPa Oeste 4.7 km/h 8.4 km/h 67% 0.0 mm
01:24 20.7 °C 14.6 °C 1013.3 hPa Oeste 4.7 km/h 8 km/h 68% 0.0 mm
01:29 20.6 °C 14.5 °C 1013.1 hPa SO 4.7 km/h 8 km/h 68% 0.0 mm
01:34 20.5 °C 14.6 °C 1013.1 hPa SO 4 km/h 8.4 km/h 68.6% 0.0 mm
01:39 20.4 °C 14.5 °C 1013.1 hPa SSO 3.9 km/h 8 km/h 69% 0.0 mm
01:44 20.4 °C 14.4 °C 1013.1 hPa Sur 4.5 km/h 8.4 km/h 68.2% 0.0 mm
01:49 20.5 °C 14.4 °C 1013.1 hPa Sur 4.7 km/h 8 km/h 68% 0.0 mm
01:54 20.5 °C 14.5 °C 1013.1 hPa SSE 4.7 km/h 8 km/h 68.3% 0.0 mm
01:59 20.3 °C 14.5 °C 1012.9 hPa SE 4.7 km/h 10 km/h 69.1% 0.0 mm
02:04 20.1 °C 14.4 °C 1012.9 hPa SE 5.6 km/h 9.7 km/h 69.9% 0.0 mm
02:09 19.8 °C 14.4 °C 1012.9 hPa SE 5.8 km/h 10 km/h 70.9% 0.0 mm
02:14 19.7 °C 14.5 °C 1012.7 hPa SE 5.8 km/h 9.7 km/h 71.8% 0.0 mm
02:19 19.7 °C 14.5 °C 1012.7 hPa SE 5.8 km/h 9.5 km/h 72% 0.0 mm
02:24 19.7 °C 14.3 °C 1012.7 hPa Sur 5.8 km/h 13 km/h 71.1% 0.0 mm
02:29 19.8 °C 14.2 °C 1012.6 hPa Sur 5.8 km/h 12.9 km/h 70.3% 0.0 mm
02:34 19.9 °C 14.2 °C 1012.6 hPa Sur 5.2 km/h 8 km/h 69.7% 0.0 mm
02:39 20.1 °C 14.2 °C 1012.6 hPa Sur 5 km/h 5.8 km/h 69% 0.0 mm
02:44 20.1 °C 14.3 °C 1012.5 hPa SSE 3.4 km/h 6.9 km/h 69% 0.0 mm
02:49 20.2 °C 14.3 °C 1012.5 hPa SE 2.9 km/h 10 km/h 68.7% 0.0 mm
02:54 20.2 °C 14.1 °C 1012.5 hPa SE 4.5 km/h 11.9 km/h 68% 0.0 mm
02:59 20.3 °C 13.9 °C 1012.5 hPa SE 5 km/h 11.3 km/h 67.1% 0.0 mm
03:04 20.3 °C 13.9 °C 1012.5 hPa SE 6.6 km/h 11.3 km/h 67% 0.0 mm
03:09 20.2 °C 13.9 °C 1012.5 hPa SE 6.9 km/h 11.1 km/h 67.3% 0.0 mm
03:14 20 °C 13.9 °C 1012.3 hPa SE 6.6 km/h 11.3 km/h 68% 0.0 mm
03:19 19.9 °C 13.8 °C 1012.3 hPa Sur 6.5 km/h 9.7 km/h 68% 0.0 mm
03:24 19.8 °C 14 °C 1012.5 hPa Oeste 4.4 km/h 8 km/h 69% 0.0 mm
03:29 19.8 °C 13.8 °C 1012.5 hPa SO 3.9 km/h 7.6 km/h 68.5% 0.0 mm
03:34 19.9 °C 13.8 °C 1012.5 hPa SO 4.5 km/h 8.4 km/h 68% 0.0 mm
03:39 20.1 °C 13.9 °C 1012.5 hPa SSO 4.7 km/h 8.7 km/h 67.5% 0.0 mm
03:44 20.1 °C 13.8 °C 1012.3 hPa SSO 6 km/h 10 km/h 67% 0.0 mm
03:49 20.1 °C 13.8 °C 1012.3 hPa SO 6.5 km/h 9.7 km/h 67% 0.0 mm
03:54 20.1 °C 13.8 °C 1012.3 hPa SO 6.8 km/h 11.1 km/h 67% 0.0 mm
03:59 20 °C 13.5 °C 1012.0 hPa SO 6.9 km/h 11.9 km/h 66.1% 0.0 mm
04:04 20.1 °C 13.5 °C 1012.0 hPa SO 7.5 km/h 11.3 km/h 66% 0.0 mm
04:09 20.1 °C 13.4 °C 1012.0 hPa SO 7.6 km/h 13 km/h 65.2% 0.0 mm
04:14 20.1 °C 13.3 °C 1011.8 hPa Oeste 7.1 km/h 12.9 km/h 65% 0.0 mm
04:19 20.1 °C 13.3 °C 1011.8 hPa OSO 6.9 km/h 9.7 km/h 65.1% 0.0 mm
04:24 20 °C 13.3 °C 1011.8 hPa SO 4.6 km/h 8 km/h 65.4% 0.0 mm
04:29 19.9 °C 13.3 °C 1011.7 hPa Oeste 3.9 km/h 8 km/h 66% 0.0 mm
04:34 19.8 °C 13.3 °C 1011.7 hPa Oeste 3.1 km/h 4.8 km/h 66.3% 0.0 mm
04:39 19.7 °C 13.4 °C 1011.7 hPa Oeste 2.9 km/h 3.9 km/h 67% 0.0 mm
04:44 19.6 °C 13.3 °C 1011.6 hPa Oeste 0.7 km/h 5.6 km/h 67% 0.0 mm
04:49 19.6 °C 13.4 °C 1011.6 hPa Calm   4.8 km/h 67.3% 0.0 mm
04:54 19.6 °C 13.3 °C 1011.6 hPa Sur 2.2 km/h 9.5 km/h 67% 0.0 mm
04:59 19.7 °C 13.1 °C 1011.6 hPa SSO 2.9 km/h 10 km/h 65.8% 0.0 mm
05:04 19.8 °C 12.9 °C 1011.6 hPa Sur 5.8 km/h 9.7 km/h 64.4% 0.0 mm
05:09 19.9 °C 12.8 °C 1011.6 hPa SO 6.5 km/h 10 km/h 63.5% 0.0 mm
05:14 20 °C 12.8 °C 1011.6 hPa SO 6 km/h 9.7 km/h 63.2% 0.0 mm
05:19 19.9 °C 12.8 °C 1011.6 hPa SSO 5.8 km/h 9.5 km/h 63.4% 0.0 mm
05:24 19.9 °C 12.7 °C 1011.6 hPa SO 4.9 km/h 11.1 km/h 62.9% 0.0 mm
05:29 20 °C 12.5 °C 1011.6 hPa SSO 4.7 km/h 14.8 km/h 62% 0.0 mm
05:34 20.1 °C 12.6 °C 1011.6 hPa SSO 7.7 km/h 14.8 km/h 62% 0.0 mm
05:39 20.1 °C 12.4 °C 1011.6 hPa SSO 8.7 km/h 16.7 km/h 61.1% 0.0 mm
05:44 20.2 °C 12.3 °C 1011.6 hPa SSO 8.7 km/h 16.1 km/h 60.3% 0.0 mm
05:49 20.3 °C 12.3 °C 1011.6 hPa SO 8.7 km/h 14.5 km/h 60% 0.0 mm
05:54 20.3 °C 12.4 °C 1011.6 hPa OSO 8.5 km/h 12.9 km/h 60.4% 0.0 mm
05:59 20.1 °C 12.7 °C 1011.5 hPa NO 8.4 km/h 9.7 km/h 62.8% 0.0 mm
06:04 19.5 °C 12.7 °C 1011.5 hPa ONO 4.8 km/h 8 km/h 65% 0.0 mm
06:09 19.2 °C 12.7 °C 1011.5 hPa Oeste 3.9 km/h 8 km/h 66.4% 0.0 mm
06:14 18.9 °C 12.7 °C 1011.5 hPa OSO 3.9 km/h 8.7 km/h 67.1% 0.0 mm
06:19 18.8 °C 12.6 °C 1011.5 hPa SSE 3.9 km/h 9.7 km/h 67.4% 0.0 mm
06:24 18.7 °C 12.8 °C 1011.5 hPa ESE 4.7 km/h 10 km/h 68.7% 0.0 mm
06:29 18.3 °C 12.6 °C 1011.4 hPa ESE 5 km/h 9.7 km/h 69.3% 0.0 mm
06:34 18.1 °C 12.6 °C 1011.4 hPa Este 4.1 km/h 8 km/h 70.3% 0.0 mm
06:39 18 °C 12.7 °C 1011.4 hPa ENE 3.9 km/h 8 km/h 71% 0.0 mm
06:44 17.9 °C 12.6 °C 1011.4 hPa NE 3.9 km/h 5.6 km/h 71% 0.0 mm
06:49 18 °C 12.7 °C 1011.4 hPa NO 3.9 km/h 7.4 km/h 70.8% 0.0 mm
06:54 18.2 °C 12.6 °C 1011.4 hPa OSO 3.4 km/h 10 km/h 70% 0.0 mm
06:59 18.4 °C 12.6 °C 1011.2 hPa SO 3.2 km/h 15.6 km/h 69% 0.0 mm
07:04 19 °C 12.5 °C 1011.2 hPa SO 6.2 km/h 17.2 km/h 66.1% 0.0 mm
07:09 19.6 °C 12.5 °C 1011.2 hPa SO 6.9 km/h 17.7 km/h 63.4% 0.0 mm
07:14 19.8 °C 12.5 °C 1011.1 hPa North 8.3 km/h 16.1 km/h 62.8% 0.0 mm
07:19 19.6 °C 12.6 °C 1011.1 hPa SSO 8.7 km/h 8 km/h 63.9% 0.0 mm
07:24 19.3 °C 12.6 °C 1011.1 hPa ENE 4.5 km/h 8.4 km/h 65.5% 0.0 mm
07:29 18.8 °C 12.6 °C 1011.1 hPa ESE 3.2 km/h 9.3 km/h 67.1% 0.0 mm
07:34 18.5 °C 12.7 °C 1011.1 hPa SE 4.3 km/h 9.7 km/h 68.7% 0.0 mm
07:39 18.3 °C 12.6 °C 1011.2 hPa SE 4.7 km/h 8.4 km/h 69.4% 0.0 mm
07:44 18.2 °C 12.6 °C 1011.2 hPa SSE 4.7 km/h 8 km/h 70% 0.0 mm
07:49 18.1 °C 12.6 °C 1011.2 hPa Sur 4.7 km/h 8 km/h 70.4% 0.0 mm
07:54 18.2 °C 12.7 °C 1011.2 hPa SO 4 km/h 9.3 km/h 70% 0.0 mm
07:59 18.3 °C 12.6 °C 1011.1 hPa OSO 3.9 km/h 9.7 km/h 69.3% 0.0 mm
08:04 18.6 °C 12.6 °C 1011.1 hPa SO 4.5 km/h 9.3 km/h 68% 0.0 mm
08:09 19 °C 12.6 °C 1011.1 hPa SSO 4.7 km/h 11.1 km/h 66.5% 0.0 mm
08:14 19.3 °C 12.8 °C 1011.1 hPa SSE 6 km/h 11.3 km/h 66% 0.0 mm
08:19 19.3 °C 12.9 °C 1011.1 hPa Sur 6.5 km/h 11.3 km/h 66.5% 0.0 mm
08:24 19.3 °C 12.9 °C 1011.2 hPa Sur 6.8 km/h 11.3 km/h 66.4% 0.0 mm
08:29 19.5 °C 12.9 °C 1011.2 hPa Sur 6.9 km/h 14.8 km/h 65.7% 0.0 mm
08:34 19.8 °C 12.9 °C 1011.2 hPa SSO 7.4 km/h 14.8 km/h 64.5% 0.0 mm
08:39 20.1 °C 12.9 °C 1011.2 hPa SSO 7.6 km/h 14.5 km/h 63.4% 0.0 mm
08:44 20.3 °C 12.9 °C 1011.1 hPa SSO 7.6 km/h 11.3 km/h 62.7% 0.0 mm
08:49 20.4 °C 12.9 °C 1011.1 hPa Sur 7.6 km/h 11.3 km/h 62.1% 0.0 mm
08:54 20.6 °C 13.2 °C 1011.2 hPa SSO 4.7 km/h 8 km/h 62.6% 0.0 mm
08:59 20.8 °C 13.4 °C 1011.2 hPa NO 3.9 km/h 7.4 km/h 62.7% 0.0 mm
09:04 20.9 °C 13.4 °C 1011.2 hPa ONO 3.3 km/h 8 km/h 62.2% 0.0 mm
09:09 20.9 °C 13.4 °C 1011.4 hPa ONO 3.2 km/h 10 km/h 62.3% 0.0 mm
09:14 20.8 °C 13.4 °C 1011.4 hPa Oeste 4.3 km/h 10 km/h 62.5% 0.0 mm
09:19 20.8 °C 13.3 °C 1011.4 hPa OSO 4.7 km/h 11.1 km/h 61.8% 0.0 mm
09:24 21 °C 13.1 °C 1011.4 hPa OSO 6 km/h 11.3 km/h 60.7% 0.0 mm
09:29 21.3 °C 13 °C 1011.3 hPa SO 6.5 km/h 9.7 km/h 59.2% 0.0 mm
09:34 21.6 °C 13 °C 1011.3 hPa SO 6.5 km/h 10 km/h 58% 0.0 mm
09:39 21.9 °C 12.9 °C 1011.3 hPa OSO 6.5 km/h 10.3 km/h 56.5% 0.0 mm
09:44 22.2 °C 13 °C 1011.2 hPa Oeste 5.3 km/h 11.3 km/h 55.9% 0.0 mm
09:49 22.3 °C 12.9 °C 1011.2 hPa OSO 5 km/h 11.3 km/h 55% 0.0 mm
09:54 22.4 °C 12.9 °C 1011.2 hPa SSO 6.1 km/h 9.7 km/h 55.1% 0.0 mm
09:59 22.5 °C 13.8 °C 1011.2 hPa SSE 6.5 km/h 9.7 km/h 57.6% 0.0 mm
10:04 22.4 °C 14 °C 1011.2 hPa Sur 5.9 km/h 9.7 km/h 59% 0.0 mm
10:09 22.3 °C 14.1 °C 1011.3 hPa SSE 5.8 km/h 9.7 km/h 59.8% 0.0 mm
10:14 22.2 °C 14 °C 1011.3 hPa SSO 4.9 km/h 11.1 km/h 59.9% 0.0 mm
10:19 22.2 °C 13.3 °C 1011.3 hPa OSO 4.7 km/h 16.7 km/h 57.1% 0.0 mm
10:24 22.4 °C 13.2 °C 1011.4 hPa OSO 7.5 km/h 19.8 km/h 56% 0.0 mm
10:29 22.5 °C 13.3 °C 1011.4 hPa OSO 8.4 km/h 20.9 km/h 55.9% 0.0 mm
10:34 22.6 °C 13.4 °C 1011.4 hPa OSO 9.6 km/h 20.9 km/h 56% 0.0 mm
10:39 22.6 °C 13.4 °C 1011.4 hPa OSO 10 km/h 20.9 km/h 56% 0.0 mm
10:44 22.6 °C 13.5 °C 1011.2 hPa OSO 10.8 km/h 18.5 km/h 56.3% 0.0 mm
10:49 22.6 °C 13.7 °C 1011.2 hPa SO 11.1 km/h 20.1 km/h 57.1% 0.0 mm
10:54 22.6 °C 13.8 °C 1011.2 hPa SO 11.7 km/h 20.9 km/h 57.4% 0.0 mm
10:59 22.6 °C 13.8 °C 1011.1 hPa SO 11.9 km/h 24.1 km/h 57.9% 0.0 mm
11:04 22.5 °C 13.6 °C 1011.1 hPa SO 12.8 km/h 27.8 km/h 56.9% 0.0 mm
11:09 22.6 °C 13.7 °C 1011.1 hPa SO 13 km/h 27.4 km/h 57% 0.0 mm
11:14 22.6 °C 13.5 °C 1011.1 hPa SO 12.4 km/h 20.9 km/h 56.4% 0.0 mm
11:19 22.6 °C 13.4 °C 1011.1 hPa SO 12.2 km/h 20.9 km/h 56% 0.0 mm
11:24 22.7 °C 13.4 °C 1011.1 hPa SO 12.2 km/h 22.5 km/h 55.8% 0.0 mm
11:29 22.7 °C 13.1 °C 1011.0 hPa OSO 12.2 km/h 24.1 km/h 54.6% 0.0 mm
11:34 22.8 °C 12.8 °C 1011.0 hPa OSO 14.3 km/h 24.1 km/h 53.2% 0.0 mm
11:39 22.9 °C 12.9 °C 1011.0 hPa OSO 14.8 km/h 22.5 km/h 53% 0.0 mm
11:44 23.1 °C 12.9 °C 1011.0 hPa OSO 12.8 km/h 22.5 km/h 52.6% 0.0 mm
11:49 23.1 °C 12.8 °C 1011.0 hPa OSO 12.2 km/h 22.5 km/h 52.5% 0.0 mm
11:54 23.1 °C 13 °C 1011.0 hPa OSO 12 km/h 19.3 km/h 53% 0.0 mm
11:59 23.2 °C 13.1 °C 1010.6 hPa OSO 11.9 km/h 16.7 km/h 53% 0.0 mm
12:04 23.2 °C 13 °C 1010.6 hPa SO 9.3 km/h 16.7 km/h 52.6% 0.0 mm
12:09 23.2 °C 13 °C 1010.6 hPa SO 8.7 km/h 19.8 km/h 52.5% 0.0 mm
12:14 23.2 °C 13 °C 1010.4 hPa SO 10 km/h 20.9 km/h 52.6% 0.0 mm
12:19 23.2 °C 13.1 °C 1010.4 hPa SO 10.3 km/h 20.9 km/h 53% 0.0 mm
12:24 23.3 °C 13.2 °C 1010.4 hPa SO 10.9 km/h 19.3 km/h 53% 0.0 mm
12:29 23.4 °C 13.2 °C 1010.1 hPa SO 11.1 km/h 14.8 km/h 53% 0.0 mm
12:34 23.4 °C 13.3 °C 1010.1 hPa SSO 9.8 km/h 14.8 km/h 53% 0.0 mm
12:39 23.4 °C 13.3 °C 1010.1 hPa SSO 9.5 km/h 15.6 km/h 53% 0.0 mm
12:44 23.4 °C 13.3 °C 1009.9 hPa SO 9.9 km/h 16.1 km/h 53.1% 0.0 mm
12:49 23.5 °C 13.4 °C 1009.9 hPa SSO 10 km/h 16.7 km/h 53.1% 0.0 mm
12:54 23.7 °C 13.5 °C 1009.9 hPa SSO 9 km/h 17.2 km/h 52.8% 0.0 mm
12:59 24 °C 13.5 °C 1009.6 hPa SO 8.7 km/h 17.7 km/h 52% 0.0 mm
13:04 24.2 °C 13.5 °C 1009.6 hPa SO 8.7 km/h 20.4 km/h 51.1% 0.0 mm
13:09 24.3 °C 13.5 °C 1009.6 hPa SSO 8.7 km/h 24.1 km/h 51% 0.0 mm
13:14 24.4 °C 13.4 °C 1009.1 hPa SSO 11.2 km/h 24.1 km/h 50.3% 0.0 mm
13:19 24.5 °C 13.3 °C 1009.1 hPa SSO 11.9 km/h 19.3 km/h 49.9% 0.0 mm
13:24 24.7 °C 13.5 °C 1009.1 hPa SSO 10.7 km/h 19.3 km/h 49.6% 0.0 mm
13:29 24.9 °C 12.9 °C 1008.8 hPa SSO 10.3 km/h 27.8 km/h 47.2% 0.0 mm
13:34 24.9 °C 12.5 °C 1008.8 hPa SSO 12.9 km/h 27.4 km/h 46% 0.0 mm
13:39 25.1 °C 12.5 °C 1008.8 hPa SSO 13.7 km/h 26.2 km/h 45.4% 0.0 mm
13:44 25.1 °C 12.6 °C 1008.5 hPa SSO 13.9 km/h 25.9 km/h 45.7% 0.0 mm
13:49 25.1 °C 13 °C 1008.5 hPa SSO 14 km/h 25.9 km/h 46.9% 0.0 mm
13:54 25.1 °C 13 °C 1008.5 hPa SSO 15.6 km/h 25.7 km/h 46.9% 0.0 mm
13:59 25.2 °C 12.8 °C 1008.4 hPa SSO 16.1 km/h 24.1 km/h 46.1% 0.0 mm
14:04 25.3 °C 12.9 °C 1008.4 hPa SO 15 km/h 26.2 km/h 46% 0.0 mm
14:09 25.4 °C 12.9 °C 1008.4 hPa SO 14.8 km/h 25.7 km/h 46% 0.0 mm
14:14 25.6 °C 12.8 °C 1008.1 hPa SO 13.4 km/h 24.1 km/h 45% 0.0 mm
14:19 25.7 °C 12.7 °C 1008.1 hPa OSO 13 km/h 24.1 km/h 44.4% 0.0 mm
14:24 25.8 °C 12.6 °C 1008.1 hPa OSO 11.5 km/h 19.3 km/h 44% 0.0 mm
14:29 25.9 °C 12.6 °C 1007.8 hPa SO 11.1 km/h 20.4 km/h 43.8% 0.0 mm
14:34 26.2 °C 12.7 °C 1007.8 hPa OSO 10.2 km/h 20.9 km/h 43.4% 0.0 mm
14:39 26.3 °C 12.7 °C 1007.8 hPa ONO 10 km/h 16.1 km/h 43% 0.0 mm
14:44 26.3 °C 12.7 °C 1007.6 hPa Oeste 9 km/h 14.8 km/h 42.9% 0.0 mm
14:49 26.5 °C 12.2 °C 1007.6 hPa SO 8.7 km/h 34.3 km/h 41.1% 0.0 mm
14:54 26.9 °C 10.8 °C 1007.6 hPa SO 12.1 km/h 33.8 km/h 36.7% 0.0 mm
14:59 27.1 °C 10 °C 1007.5 hPa OSO 13 km/h 38.9 km/h 34.3% 0.0 mm
15:04 26.9 °C 9.7 °C 1007.5 hPa SO 18.7 km/h 39.6 km/h 34% 0.0 mm
15:09 27.1 °C 9.8 °C 1007.5 hPa OSO 20.1 km/h 40.2 km/h 34% 0.0 mm
15:14 27.1 °C 9.6 °C 1007.4 hPa SO 17.2 km/h 33.5 km/h 33.4% 0.0 mm
15:19 27.1 °C 9.2 °C 1007.4 hPa SO 16.4 km/h 40.7 km/h 32.5% 0.0 mm
15:24 27.2 °C 9.1 °C 1007.4 hPa OSO 20.6 km/h 40.2 km/h 32% 0.0 mm
15:29 27.2 °C 9.2 °C 1007.1 hPa OSO 21.7 km/h 42.6 km/h 32.2% 0.0 mm
15:34 27.2 °C 9.5 °C 1007.1 hPa SO 20.2 km/h 41.8 km/h 33% 0.0 mm
15:39 27.1 °C 9.5 °C 1007.1 hPa OSO 19.8 km/h 30.6 km/h 33% 0.0 mm
15:44 27.1 °C 9.4 °C 1007.1 hPa OSO 18.4 km/h 33.3 km/h 33% 0.0 mm
15:49 27.1 °C 9.4 °C 1007.1 hPa OSO 18 km/h 33.8 km/h 33% 0.0 mm
15:54 27.1 °C 9.4 °C 1007.1 hPa SO 17.5 km/h 32.2 km/h 33% 0.0 mm
15:59 27.1 °C 9.4 °C 1007.0 hPa SO 17.2 km/h 32.2 km/h 33% 0.0 mm
16:04 26.9 °C 9.3 °C 1007.0 hPa SO 16.3 km/h 27.8 km/h 33% 0.0 mm
16:09 26.9 °C 9.2 °C 1007.0 hPa OSO 16.1 km/h 27.4 km/h 33% 0.0 mm
16:14 26.9 °C 9.3 °C 1006.9 hPa OSO 14.2 km/h 24.1 km/h 33% 0.0 mm
16:19 26.9 °C 9.3 °C 1006.9 hPa SO 13.7 km/h 32.3 km/h 33% 0.0 mm
16:24 27 °C 9.3 °C 1006.9 hPa SO 13.9 km/h 33.8 km/h 33% 0.0 mm
16:29 26.9 °C 9.3 °C 1006.7 hPa SO 14 km/h 32.2 km/h 33% 0.0 mm
16:34 26.9 °C 9.3 °C 1006.7 hPa SO 15.6 km/h 28.2 km/h 33% 0.0 mm
16:39 26.9 °C 9.3 °C 1006.7 hPa SO 16.1 km/h 27.4 km/h 33% 0.0 mm
16:44 26.9 °C 9.3 °C 1006.5 hPa SO 14.2 km/h 24.1 km/h 33% 0.0 mm
16:49 26.8 °C 8.9 °C 1006.5 hPa SO 13.7 km/h 33.5 km/h 32.3% 0.0 mm
16:54 26.7 °C 8.7 °C 1006.5 hPa SO 15.2 km/h 33.8 km/h 32% 0.0 mm
16:59 26.7 °C 8.7 °C 1006.4 hPa OSO 15.6 km/h 29.6 km/h 32.2% 0.0 mm
17:04 26.6 °C 9 °C 1006.4 hPa OSO 16 km/h 29 km/h 33% 0.0 mm
17:09 26.6 °C 9 °C 1006.4 hPa OSO 16.1 km/h 25.7 km/h 33% 0.0 mm
17:14 26.6 °C 9.4 °C 1006.3 hPa SO 12.8 km/h 19.3 km/h 33.9% 0.0 mm
17:19 26.5 °C 9.3 °C 1006.3 hPa SO 11.9 km/h 29.6 km/h 34% 0.0 mm
17:24 26.3 °C 9.5 °C 1006.3 hPa SO 11.9 km/h 29 km/h 34.9% 0.0 mm
17:29 26.1 °C 9.4 °C 1006.2 hPa OSO 11.9 km/h 27.8 km/h 35% 0.0 mm
17:34 25.9 °C 9.3 °C 1006.2 hPa OSO 14.1 km/h 27.4 km/h 35% 0.0 mm
17:39 25.8 °C 9.2 °C 1006.3 hPa OSO 14.8 km/h 37.8 km/h 35% 0.0 mm
17:44 25.7 °C 9.1 °C 1006.3 hPa OSO 16.1 km/h 37 km/h 35% 0.0 mm
17:49 25.6 °C 9 °C 1006.3 hPa SO 16.4 km/h 33.8 km/h 35% 0.0 mm
17:54 25.5 °C 9.3 °C 1006.4 hPa OSO 15.2 km/h 24.1 km/h 35.9% 0.0 mm
17:59 25.3 °C 9.2 °C 1006.4 hPa OSO 14.8 km/h 25.9 km/h 36% 0.0 mm
18:04 25.2 °C 9.4 °C 1006.4 hPa OSO 14.8 km/h 26.2 km/h 36.9% 0.0 mm
18:09 25 °C 9.3 °C 1006.5 hPa OSO 14.8 km/h 29.8 km/h 37% 0.0 mm
18:14 24.8 °C 9.4 °C 1006.5 hPa Oeste 16.7 km/h 30.6 km/h 37.6% 0.0 mm
18:19 24.7 °C 9.4 °C 1006.5 hPa Oeste 17.2 km/h 29.6 km/h 38% 0.0 mm
18:24 24.4 °C 9.5 °C 1006.6 hPa Oeste 14.5 km/h 29 km/h 38.7% 0.0 mm
18:29 24.4 °C 9.6 °C 1006.6 hPa Oeste 13.7 km/h 25.9 km/h 39% 0.0 mm
18:34 24.4 °C 9.6 °C 1006.6 hPa Oeste 13.2 km/h 25.7 km/h 39% 0.0 mm
18:39 24.3 °C 9.5 °C 1006.7 hPa Oeste 13 km/h 24.1 km/h 39% 0.0 mm
18:44 24.2 °C 9.4 °C 1006.7 hPa Oeste 10.6 km/h 19.3 km/h 39% 0.0 mm
18:49 24.1 °C 9.7 °C 1006.7 hPa Oeste 10 km/h 13 km/h 40% 0.0 mm
18:54 23.9 °C 9.5 °C 1006.7 hPa Oeste 8.1 km/h 12.9 km/h 40% 0.0 mm
18:59 23.8 °C 9.6 °C 1006.4 hPa Oeste 7.6 km/h 13 km/h 40.4% 0.0 mm
19:04 23.7 °C 9.7 °C 1006.4 hPa SO 6.7 km/h 12.9 km/h 41% 0.0 mm
19:09 23.6 °C 9.6 °C 1006.7 hPa Sur 6.5 km/h 9.7 km/h 41% 0.0 mm
19:14 23.5 °C 9.9 °C 1006.7 hPa Sur 6 km/h 10.3 km/h 42% 0.0 mm
19:19 23.3 °C 10 °C 1006.7 hPa Sur 5.8 km/h 13 km/h 43% 0.0 mm
19:24 23.1 °C 9.8 °C 1006.8 hPa SO 7.1 km/h 13.7 km/h 43% 0.0 mm
19:29 23 °C 9.7 °C 1006.8 hPa SO 7.6 km/h 14.8 km/h 43% 0.0 mm
19:34 23.1 °C 9.8 °C 1006.8 hPa SO 8.2 km/h 14.5 km/h 43% 0.0 mm
19:39 23.2 °C 9.9 °C 1006.8 hPa OSO 8.4 km/h 14.8 km/h 43% 0.0 mm
19:44 23.2 °C 9.9 °C 1006.7 hPa SO 8.6 km/h 12.9 km/h 43% 0.0 mm
19:49 23.1 °C 9.8 °C 1006.7 hPa SO 8.7 km/h 13 km/h 43% 0.0 mm
19:54 23.1 °C 9.8 °C 1006.8 hPa SO 8.5 km/h 14.8 km/h 43% 0.0 mm
19:59 23 °C 10.1 °C 1006.8 hPa SO 8.4 km/h 14.5 km/h 43.9% 0.0 mm
20:04 22.9 °C 10 °C 1006.8 hPa SSO 8.4 km/h 14.5 km/h 44% 0.0 mm
20:09 22.9 °C 10 °C 1006.8 hPa SSO 8.4 km/h 12.9 km/h 44% 0.0 mm
20:14 22.8 °C 9.9 °C 1006.7 hPa SO 7.2 km/h 14.8 km/h 44% 0.0 mm
20:19 22.7 °C 9.8 °C 1006.7 hPa SO 6.9 km/h 14.5 km/h 44% 0.0 mm
20:24 22.7 °C 9.8 °C 1006.7 hPa SSO 7.4 km/h 13 km/h 44% 0.0 mm
20:29 22.6 °C 10.2 °C 1006.6 hPa SSE 7.6 km/h 12.9 km/h 45.6% 0.0 mm
20:34 22.2 °C 10.5 °C 1006.6 hPa SE 5.6 km/h 8.4 km/h 47.6% 0.0 mm
20:39 21.6 °C 10.4 °C 1006.6 hPa SE 5 km/h 13 km/h 49% 0.0 mm
20:44 21.2 °C 10.3 °C 1006.5 hPa SE 5.6 km/h 13.7 km/h 50% 0.0 mm
20:49 20.9 °C 10.1 °C 1006.5 hPa SSE 5.8 km/h 18 km/h 50% 0.0 mm
20:54 20.8 °C 10.1 °C 1006.5 hPa SE 9.3 km/h 20.9 km/h 50% 0.0 mm
20:59 21.1 °C 10 °C 1006.5 hPa Sur 10.3 km/h 20.9 km/h 49.2% 0.0 mm
21:04 21.3 °C 10 °C 1006.5 hPa Sur 11.6 km/h 20.9 km/h 48.6% 0.0 mm
21:09 21.4 °C 9.9 °C 1006.5 hPa SSO 11.9 km/h 17.2 km/h 48% 0.0 mm
21:14 21.7 °C 10.2 °C 1006.5 hPa SSO 9.4 km/h 17.7 km/h 48% 0.0 mm
21:19 21.8 °C 10.3 °C 1006.5 hPa SSO 8.7 km/h 16.1 km/h 48% 0.0 mm
21:24 21.8 °C 10.3 °C 1006.5 hPa SSO 8.5 km/h 14.8 km/h 48% 0.0 mm
21:29 21.9 °C 10.4 °C 1006.4 hPa SSO 8.4 km/h 14.8 km/h 48% 0.0 mm
21:34 22 °C 10.5 °C 1006.4 hPa SSO 8.6 km/h 13.7 km/h 48% 0.0 mm
21:39 21.9 °C 10.4 °C 1006.4 hPa Sur 8.7 km/h 14.5 km/h 48% 0.0 mm
21:44 21.9 °C 10.4 °C 1006.2 hPa Sur 7.3 km/h 14.8 km/h 48% 0.0 mm
21:49 21.9 °C 10.4 °C 1006.2 hPa SSO 6.9 km/h 20.4 km/h 48% 0.0 mm
21:54 22 °C 10.5 °C 1006.2 hPa SSO 8.3 km/h 20.9 km/h 48% 0.0 mm
21:59 22.1 °C 10.6 °C 1006.2 hPa SSO 8.7 km/h 16.7 km/h 48% 0.0 mm
22:04 22.1 °C 10.5 °C 1006.2 hPa SSO 10.7 km/h 16.7 km/h 48% 0.0 mm
22:09 21.9 °C 10.7 °C 1006.2 hPa SSO 11.1 km/h 14.5 km/h 48.8% 0.0 mm
22:14 21.7 °C 10.6 °C 1005.9 hPa SO 8.3 km/h 17.2 km/h 49.3% 0.0 mm
22:19 21.6 °C 10.7 °C 1005.9 hPa SO 7.6 km/h 17.7 km/h 50% 0.0 mm
22:24 21.4 °C 10.8 °C 1005.9 hPa SO 8.2 km/h 16.7 km/h 50.8% 0.0 mm
22:29 21.3 °C 10.8 °C 1005.9 hPa SO 8.4 km/h 16.1 km/h 51.4% 0.0 mm
22:34 21.2 °C 10.9 °C 1005.9 hPa SO 9.2 km/h 18.5 km/h 52% 0.0 mm
22:39 21.3 °C 11 °C 1005.9 hPa SSO 9.5 km/h 19.3 km/h 52% 0.0 mm
22:44 21.4 °C 10.9 °C 1005.8 hPa SSO 9.9 km/h 18.5 km/h 51.1% 0.0 mm
22:49 21.5 °C 10.9 °C 1005.8 hPa SO 10 km/h 19.3 km/h 51% 0.0 mm
22:54 21.4 °C 11.1 °C 1005.8 hPa SO 9.6 km/h 16.1 km/h 51.9% 0.0 mm
22:59 21.2 °C 11.1 °C 1005.7 hPa SSO 9.5 km/h 18.5 km/h 52.4% 0.0 mm
23:04 21.1 °C 11.2 °C 1005.7 hPa SSO 8.8 km/h 19.3 km/h 53% 0.0 mm
23:09 21 °C 11.1 °C 1005.7 hPa Sur 8.7 km/h 16.7 km/h 53% 0.0 mm
23:14 21 °C 11.2 °C 1005.5 hPa Sur 8.7 km/h 16.7 km/h 53.4% 0.0 mm
23:19 20.9 °C 11.2 °C 1005.5 hPa Sur 8.7 km/h 18.5 km/h 54% 0.0 mm
23:24 20.9 °C 11.2 °C 1005.5 hPa SSO 9.3 km/h 19.3 km/h 54% 0.0 mm
23:29 20.8 °C 11.3 °C 1005.2 hPa SO 9.5 km/h 14.5 km/h 54.5% 0.0 mm
23:34 20.8 °C 11.5 °C 1005.2 hPa SSO 8.6 km/h 16.7 km/h 55% 0.0 mm
23:39 20.9 °C 11.3 °C 1005.2 hPa SSO 8.4 km/h 16.7 km/h 54.2% 0.0 mm
23:44 21.1 °C 11.4 °C 1005.1 hPa SSO 9.6 km/h 22.5 km/h 54% 0.0 mm
23:49 21.2 °C 11.4 °C 1005.1 hPa SSO 10 km/h 22.5 km/h 53.4% 0.0 mm
23:54 21.3 °C 11.4 °C 1005.1 hPa SSO 10.9 km/h 19.3 km/h 53% 0.0 mm
23:59 21.4 °C 11.4 °C 1005.0 hPa SSO 11.1 km/h 18.5 km/h 53% 0.0 mm
Murcia-Puente Tocinos, España
Compliments of Weather Underground - 3 mb

La estación de MeteoMurcia.com, publica sus datos en los siguientes proyectos:

Weather Underground PWS IMURCIAP2 Meteoclimatic www.awekas.at

W3Counter
Web Analytics